createdAt,value
2023-01-04T00:02:44.805Z,25.70
2023-01-04T00:06:49.651Z,27.30
2023-01-04T00:10:52.983Z,23.70
2023-01-04T00:14:56.445Z,26.33
2023-01-04T00:18:59.740Z,28.37
2023-01-04T00:23:06.627Z,26.03
2023-01-04T00:27:09.952Z,25.67
2023-01-04T00:31:16.211Z,23.83
2023-01-04T00:35:44.177Z,25.30
2023-01-04T00:39:44.262Z,25.90
2023-01-04T00:43:47.660Z,25.93
2023-01-04T00:47:50.932Z,27.30
2023-01-04T00:51:54.344Z,26.63
2023-01-04T00:56:02.378Z,27.23
2023-01-04T01:00:07.751Z,34.43
2023-01-04T01:04:14.037Z,29.10
2023-01-04T01:08:26.388Z,27.83
2023-01-04T01:12:31.375Z,27.67
2023-01-04T01:20:58.223Z,32.10
2023-01-04T01:25:01.700Z,26.87
2023-01-04T01:29:06.394Z,27.90
2023-01-04T01:33:10.226Z,25.53
2023-01-04T01:37:13.518Z,26.57
2023-01-04T01:41:20.915Z,24.67
2023-01-04T01:45:31.895Z,26.90
2023-01-04T01:49:38.495Z,27.07
2023-01-04T01:53:44.972Z,26.10
2023-01-04T01:57:51.621Z,24.10
2023-01-04T02:01:56.942Z,26.67
2023-01-04T02:06:03.014Z,25.20
2023-01-04T02:10:07.798Z,26.23
2023-01-04T02:14:30.245Z,24.73
2023-01-04T02:18:39.621Z,23.23
2023-01-04T02:23:19.780Z,20.63
2023-01-04T02:27:42.549Z,24.87
2023-01-04T02:31:53.765Z,25.13
2023-01-04T02:36:08.576Z,20.80
2023-01-04T02:40:22.366Z,27.47
2023-01-04T02:44:47.278Z,20.50
2023-01-04T02:49:21.373Z,28.83
2023-01-04T02:53:29.978Z,30.30
2023-01-04T02:57:44.812Z,21.63
2023-01-04T03:02:13.594Z,23.10
2023-01-04T03:06:24.876Z,20.93
2023-01-04T03:10:37.101Z,20.83
2023-01-04T03:14:45.251Z,21.20
2023-01-04T03:18:52.952Z,24.60
2023-01-04T03:23:18.179Z,23.83
2023-01-04T03:27:40.622Z,19.90
2023-01-04T03:32:07.006Z,18.53
2023-01-04T03:36:21.519Z,18.93
2023-01-04T03:40:49.392Z,19.37
2023-01-04T03:45:18.950Z,27.70
2023-01-04T03:49:30.588Z,21.20
2023-01-04T03:53:38.094Z,19.20
2023-01-04T03:57:43.511Z,19.87
2023-01-04T04:01:47.178Z,20.13
2023-01-04T04:06:08.453Z,20.40
2023-01-04T04:10:11.831Z,23.17
2023-01-04T04:14:16.564Z,18.97
2023-01-04T04:18:19.957Z,24.67
2023-01-04T04:23:09.467Z,21.40
2023-01-04T04:27:12.769Z,17.77
2023-01-04T04:31:17.575Z,19.90
2023-01-04T04:35:20.828Z,20.93
2023-01-04T04:39:24.245Z,17.93
2023-01-04T04:43:27.552Z,20.97
2023-01-04T04:47:32.192Z,22.50
2023-01-04T04:51:35.664Z,17.27
2023-01-04T04:55:38.937Z,17.50
2023-01-04T04:59:42.703Z,20.63
2023-01-04T05:03:58.600Z,17.57
2023-01-04T05:08:02.069Z,20.23
2023-01-04T05:12:23.699Z,15.57
2023-01-04T05:16:26.993Z,19.53
2023-01-04T05:20:32.105Z,17.90
2023-01-04T05:24:35.458Z,21.80
2023-01-04T05:28:38.749Z,18.83
2023-01-04T05:32:47.881Z,20.13
2023-01-04T05:36:52.806Z,17.97
2023-01-04T05:40:57.208Z,22.40
2023-01-04T05:45:01.118Z,17.97
2023-01-04T05:49:05.623Z,18.23
2023-01-04T05:53:10.561Z,20.10
2023-01-04T05:57:14.899Z,24.47
2023-01-04T06:01:18.255Z,25.50
2023-01-04T06:05:21.857Z,29.57
2023-01-04T06:09:28.088Z,20.17
2023-01-04T06:13:31.821Z,18.90
2023-01-04T06:17:35.762Z,21.20
2023-01-04T06:21:39.415Z,17.40
2023-01-04T06:25:44.656Z,22.90
2023-01-04T06:29:48.001Z,20.20
2023-01-04T06:33:51.475Z,22.97
2023-01-04T06:37:56.065Z,23.03
2023-01-04T06:42:06.158Z,18.80
2023-01-04T06:46:10.530Z,20.20
2023-01-04T06:50:14.773Z,18.87
2023-01-04T06:54:18.118Z,22.03
2023-01-04T06:58:23.028Z,25.63
2023-01-04T07:02:26.909Z,24.73
2023-01-04T07:06:30.394Z,19.77
2023-01-04T07:10:33.879Z,20.00
2023-01-04T07:14:39.785Z,20.10
2023-01-04T07:18:43.067Z,20.77
2023-01-04T07:22:46.631Z,21.17
2023-01-04T07:26:49.896Z,22.80
2023-01-04T07:30:56.141Z,22.37
2023-01-04T07:34:59.710Z,21.20
2023-01-04T07:39:03.167Z,22.53
2023-01-04T07:43:06.532Z,19.00
2023-01-04T07:47:11.205Z,21.60
2023-01-04T07:51:14.708Z,20.23
2023-01-04T07:55:18.092Z,19.77
2023-01-04T07:59:23.220Z,22.73
2023-01-04T08:03:27.866Z,19.90
2023-01-04T08:07:31.365Z,22.07
2023-01-04T08:11:35.418Z,19.00
2023-01-04T08:15:38.744Z,23.30
2023-01-04T08:19:43.923Z,23.50
2023-01-04T08:23:47.205Z,25.13
2023-01-04T08:27:50.439Z,21.83
2023-01-04T08:31:54.103Z,26.03
2023-01-04T08:36:09.812Z,20.87
2023-01-04T08:40:14.091Z,18.20
2023-01-04T08:44:17.659Z,22.13
2023-01-04T08:48:24.525Z,17.37
2023-01-04T08:52:35.733Z,24.50
2023-01-04T08:56:39.321Z,18.47
2023-01-04T09:00:42.762Z,15.70
2023-01-04T09:04:46.051Z,20.37
2023-01-04T09:08:50.777Z,33.90
2023-01-04T09:12:54.177Z,25.53
2023-01-04T09:16:57.405Z,25.63
2023-01-04T09:21:01.601Z,22.33
2023-01-04T09:25:06.947Z,25.10
2023-01-04T09:29:18.619Z,25.77
2023-01-04T09:33:35.855Z,30.47
2023-01-04T09:37:45.299Z,29.83
2023-01-04T09:41:56.618Z,34.33
2023-01-04T09:46:08.954Z,38.00
2023-01-04T09:50:17.209Z,38.30
2023-01-04T09:54:24.597Z,35.00
2023-01-04T09:58:33.829Z,40.03
2023-01-04T10:02:42.100Z,42.70
2023-01-04T10:06:45.628Z,35.63
2023-01-04T10:10:53.517Z,35.00
2023-01-04T10:15:12.679Z,42.97
2023-01-04T10:24:12.666Z,41.80
2023-01-04T10:28:31.543Z,29.03
2023-01-04T10:32:42.467Z,21.13
2023-01-04T10:36:47.121Z,12.20
2023-01-04T10:40:51.100Z,10.60
2023-01-04T10:45:09.766Z,11.20
2023-01-04T10:49:19.753Z,8.93
2023-01-04T10:53:28.512Z,10.00
2023-01-04T10:57:40.653Z,9.70
2023-01-04T11:01:48.533Z,10.40
2023-01-04T11:05:58.614Z,9.37
2023-01-04T11:10:07.850Z,8.73
2023-01-04T11:14:11.919Z,8.80
2023-01-04T11:18:16.071Z,9.07
2023-01-04T11:22:27.063Z,7.27
2023-01-04T11:26:35.971Z,7.77
2023-01-04T11:30:47.732Z,7.90
2023-01-04T11:34:53.815Z,8.13
2023-01-04T11:38:59.098Z,10.60
2023-01-04T11:43:20.961Z,8.90
2023-01-04T11:47:28.291Z,8.53
2023-01-04T11:51:39.737Z,8.17
2023-01-04T11:55:44.541Z,9.53
2023-01-04T12:00:09.323Z,9.50
2023-01-04T12:04:16.136Z,9.30
2023-01-04T12:08:30.003Z,9.60
2023-01-04T12:12:35.778Z,9.20
2023-01-04T12:16:52.808Z,8.73
2023-01-04T12:20:58.314Z,10.17
2023-01-04T12:25:02.279Z,10.40
2023-01-04T12:29:45.086Z,10.67
2023-01-04T12:33:48.805Z,8.77
2023-01-04T12:37:52.111Z,9.43
2023-01-04T12:42:22.237Z,9.40
2023-01-04T12:47:00.957Z,10.60
2023-01-04T12:51:31.593Z,10.60
2023-01-04T12:56:00.482Z,9.77
2023-01-04T13:00:06.838Z,10.43
2023-01-04T13:04:39.258Z,9.53
2023-01-04T13:08:45.653Z,8.73
2023-01-04T13:13:03.098Z,8.10
2023-01-04T13:17:22.389Z,8.90
2023-01-04T13:21:32.458Z,8.63
2023-01-04T13:25:36.353Z,9.07
2023-01-04T13:29:42.502Z,9.57
2023-01-04T13:33:47.987Z,9.80
2023-01-04T13:37:58.486Z,10.90
2023-01-04T13:42:02.424Z,9.13
2023-01-04T13:46:17.274Z,8.20
2023-01-04T13:50:36.147Z,8.40
2023-01-04T13:54:42.777Z,13.77
2023-01-04T13:58:46.876Z,10.07
2023-01-04T14:03:07.691Z,9.10
2023-01-04T14:07:12.680Z,7.20
2023-01-04T14:11:35.574Z,7.10
2023-01-04T14:15:39.705Z,6.90
2023-01-04T14:19:48.230Z,6.90
2023-01-04T14:23:52.747Z,7.90
2023-01-04T14:28:28.930Z,5.33
2023-01-04T14:32:32.596Z,6.27
2023-01-04T14:36:38.833Z,5.03
2023-01-04T14:40:47.921Z,10.20
2023-01-04T14:44:53.102Z,8.93
2023-01-04T14:48:57.116Z,8.77
2023-01-04T14:53:00.448Z,9.20
2023-01-04T14:57:06.452Z,5.70
2023-01-04T15:01:13.184Z,7.10
2023-01-04T15:05:20.519Z,7.00
2023-01-04T15:09:24.219Z,9.43
2023-01-04T15:13:29.945Z,6.93
2023-01-04T15:17:39.051Z,7.80
2023-01-04T15:21:43.489Z,8.33
2023-01-04T15:25:47.577Z,8.83
2023-01-04T15:29:53.806Z,17.00
2023-01-04T15:34:01.080Z,8.47
2023-01-04T15:38:11.615Z,8.07
2023-01-04T15:42:35.718Z,10.27
2023-01-04T15:46:41.036Z,9.07
2023-01-04T15:50:47.457Z,10.50
2023-01-04T15:54:52.159Z,8.23
2023-01-04T15:58:56.712Z,11.77
2023-01-04T16:03:00.711Z,9.00
2023-01-04T16:07:07.095Z,15.57
2023-01-04T16:11:13.246Z,9.60
2023-01-04T16:15:20.934Z,14.77
2023-01-04T16:19:24.582Z,16.50
2023-01-04T16:23:30.298Z,11.03
2023-01-04T16:27:39.636Z,17.33
2023-01-04T16:31:47.451Z,15.87
2023-01-04T16:35:57.303Z,11.63
2023-01-04T16:40:07.636Z,15.07
2023-01-04T16:44:15.561Z,15.20
2023-01-04T16:48:19.417Z,12.80
2023-01-04T16:52:26.758Z,12.80
2023-01-04T16:56:33.944Z,12.00
2023-01-04T17:00:37.767Z,12.40
2023-01-04T17:04:41.690Z,12.07
2023-01-04T17:08:48.553Z,15.83
2023-01-04T17:12:55.161Z,16.33
2023-01-04T17:16:59.924Z,12.70
2023-01-04T17:21:32.640Z,17.20
2023-01-04T17:25:31.841Z,17.10
2023-01-04T17:29:37.971Z,15.83
2023-01-04T17:33:46.166Z,17.50
2023-01-04T17:38:09.809Z,15.80
2023-01-04T17:42:17.615Z,14.23
2023-01-04T17:46:25.990Z,13.13
2023-01-04T17:50:31.219Z,18.60
2023-01-04T17:54:34.945Z,13.00
2023-01-04T17:58:38.546Z,11.17
2023-01-04T18:02:45.311Z,13.50
2023-01-04T18:06:50.056Z,13.67
2023-01-04T18:11:09.198Z,11.73
2023-01-04T18:15:16.008Z,14.13
2023-01-04T18:19:22.001Z,11.33
2023-01-04T18:23:28.211Z,11.30
2023-01-04T18:27:37.300Z,12.23
2023-01-04T18:31:45.286Z,16.10
2023-01-04T18:35:52.083Z,14.63
2023-01-04T18:39:56.517Z,13.77
2023-01-04T18:44:13.653Z,13.70
2023-01-04T18:48:29.827Z,19.03
2023-01-04T18:52:51.821Z,12.80
2023-01-04T18:57:01.228Z,14.30
2023-01-04T19:01:10.065Z,13.50
2023-01-04T19:05:20.240Z,12.70
2023-01-04T19:09:31.199Z,16.83
2023-01-04T19:13:40.134Z,13.87
2023-01-04T19:17:48.433Z,14.50
2023-01-04T19:21:57.773Z,13.50
2023-01-04T19:26:08.548Z,14.70
2023-01-04T19:30:15.441Z,17.17
2023-01-04T19:34:20.354Z,16.80
2023-01-04T19:38:28.952Z,15.07
2023-01-04T19:42:38.273Z,13.07
2023-01-04T19:46:48.514Z,15.57
2023-01-04T19:51:08.207Z,14.13
2023-01-04T19:55:15.997Z,14.20
2023-01-04T19:59:36.024Z,14.17
2023-01-04T20:03:42.544Z,15.50
2023-01-04T20:07:50.193Z,13.03
2023-01-04T20:11:55.768Z,15.87
2023-01-04T20:16:02.746Z,13.87
2023-01-04T20:20:07.857Z,18.27
2023-01-04T20:24:12.918Z,16.37
2023-01-04T20:28:20.118Z,15.57
2023-01-04T20:32:26.631Z,25.10
2023-01-04T20:36:41.638Z,23.17
2023-01-04T20:40:47.890Z,30.87
2023-01-04T20:44:52.178Z,28.60
2023-01-04T20:48:58.966Z,30.83
2023-01-04T20:53:04.292Z,33.87
2023-01-04T20:57:08.329Z,29.20
2023-01-04T21:01:13.005Z,36.83
2023-01-04T21:05:19.713Z,38.87
2023-01-04T21:09:24.386Z,34.27
2023-01-04T21:13:29.176Z,25.57
2023-01-04T21:17:33.233Z,31.00
2023-01-04T21:21:38.226Z,32.77
2023-01-04T21:25:42.890Z,32.60
2023-01-04T21:29:46.910Z,20.70
2023-01-04T21:33:51.937Z,20.13
2023-01-04T21:37:57.802Z,18.23
2023-01-04T21:42:01.194Z,16.87
2023-01-04T21:46:09.040Z,12.43
2023-01-04T21:50:16.910Z,15.33
2023-01-04T21:54:21.921Z,10.77
2023-01-04T21:58:25.720Z,15.97
2023-01-04T22:02:29.307Z,21.23
2023-01-04T22:06:37.445Z,19.23
2023-01-04T22:10:42.438Z,17.87
2023-01-04T22:14:46.174Z,22.63
2023-01-04T22:18:50.522Z,25.50
2023-01-04T22:22:54.501Z,23.30
2023-01-04T22:26:59.395Z,18.43
2023-01-04T22:31:12.761Z,22.53
2023-01-04T22:35:16.204Z,20.77
2023-01-04T22:39:21.711Z,21.33
2023-01-04T22:43:26.561Z,21.93
2023-01-04T22:47:30.099Z,20.07
2023-01-04T22:51:34.572Z,23.13
2023-01-04T22:56:09.324Z,25.37
2023-01-04T23:00:06.889Z,27.33
2023-01-04T23:04:10.794Z,31.63
2023-01-04T23:08:14.104Z,29.93
2023-01-04T23:12:17.431Z,27.43
2023-01-04T23:16:27.871Z,33.17
2023-01-04T23:20:35.260Z,20.50
2023-01-04T23:24:39.763Z,21.07
2023-01-04T23:28:43.647Z,18.40
2023-01-04T23:32:49.164Z,21.80
2023-01-04T23:36:52.408Z,19.87
2023-01-04T23:40:55.664Z,16.87
2023-01-04T23:44:59.102Z,15.90
2023-01-04T23:49:03.769Z,17.73
2023-01-04T23:53:07.205Z,18.27
2023-01-04T23:57:10.551Z,14.17
